createdAt,value
2018-01-19T00:01:24.665Z,4.20
2018-01-19T00:03:52.242Z,4.20
2018-01-19T00:06:20.545Z,4.10
2018-01-19T00:08:48.073Z,4.00
2018-01-19T00:11:16.395Z,4.10
2018-01-19T00:13:43.925Z,4.10
2018-01-19T00:16:12.245Z,4.10
2018-01-19T00:18:39.766Z,4.10
2018-01-19T00:21:07.317Z,4.10
2018-01-19T00:23:35.606Z,4.00
2018-01-19T00:26:03.150Z,4.00
2018-01-19T00:28:31.441Z,4.00
2018-01-19T00:30:58.986Z,4.00
2018-01-19T00:33:27.279Z,4.00
2018-01-19T00:35:54.829Z,4.00
2018-01-19T00:38:22.367Z,4.00
2018-01-19T00:40:49.917Z,4.10
2018-01-19T00:43:17.441Z,4.10
2018-01-19T00:45:44.982Z,4.20
2018-01-19T00:48:12.507Z,4.20
2018-01-19T00:50:40.059Z,4.20
2018-01-19T00:53:07.577Z,4.20
2018-01-19T00:55:35.134Z,4.20
2018-01-19T00:58:02.708Z,4.30
2018-01-19T01:00:30.242Z,4.40
2018-01-19T01:02:57.778Z,4.30
2018-01-19T01:05:26.130Z,4.30
2018-01-19T01:07:53.667Z,4.30
2018-01-19T01:10:21.284Z,4.40
2018-01-19T01:12:49.570Z,4.40
2018-01-19T01:15:17.107Z,4.40
2018-01-19T01:17:45.447Z,4.40
2018-01-19T01:20:12.992Z,4.40
2018-01-19T01:22:40.552Z,4.50
2018-01-19T01:25:08.083Z,4.50
2018-01-19T01:27:35.630Z,4.50
2018-01-19T01:30:04.035Z,4.40
2018-01-19T01:32:31.591Z,4.40
2018-01-19T01:34:59.118Z,4.40
2018-01-19T01:37:26.786Z,4.30
2018-01-19T01:39:55.083Z,4.50
2018-01-19T01:42:22.638Z,4.40
2018-01-19T01:44:50.190Z,4.50
2018-01-19T01:47:18.500Z,4.50
2018-01-19T01:49:46.023Z,4.50
2018-01-19T01:52:14.789Z,4.50
2018-01-19T01:54:42.358Z,4.50
2018-01-19T01:57:09.963Z,4.50
2018-01-19T01:59:37.486Z,4.50
2018-01-19T02:02:05.809Z,4.40
2018-01-19T02:04:33.345Z,4.40
2018-01-19T02:07:01.371Z,4.40
2018-01-19T02:09:29.266Z,4.40
2018-01-19T02:11:57.554Z,4.20
2018-01-19T02:14:25.402Z,4.20
2018-01-19T02:16:53.705Z,4.10
2018-01-19T02:19:21.630Z,4.10
2018-01-19T02:21:49.410Z,4.00
2018-01-19T02:24:17.395Z,3.90
2018-01-19T02:26:45.677Z,4.00
2018-01-19T02:29:14.034Z,3.90
2018-01-19T02:31:41.879Z,3.90
2018-01-19T02:34:09.408Z,3.90
2018-01-19T02:36:37.282Z,3.80
2018-01-19T02:39:04.826Z,3.70
2018-01-19T02:41:32.711Z,3.70
2018-01-19T02:44:00.237Z,3.80
2018-01-19T02:46:28.853Z,3.80
2018-01-19T02:48:56.374Z,3.70
2018-01-19T02:51:25.102Z,3.80
2018-01-19T02:53:52.915Z,3.80
2018-01-19T02:56:21.550Z,3.70
2018-01-19T02:58:49.069Z,3.70
2018-01-19T03:01:17.694Z,3.70
2018-01-19T03:03:45.213Z,3.70
2018-01-19T03:06:13.839Z,3.70
2018-01-19T03:08:41.354Z,3.70
2018-01-19T03:11:09.985Z,3.70
2018-01-19T03:13:37.501Z,3.70
2018-01-19T03:16:06.123Z,3.70
2018-01-19T03:18:33.641Z,3.60
2018-01-19T03:21:02.269Z,3.60
2018-01-19T03:23:29.789Z,3.60
2018-01-19T03:25:58.101Z,3.60
2018-01-19T03:28:25.658Z,3.60
2018-01-19T03:30:53.181Z,3.60
2018-01-19T03:33:21.469Z,3.60
2018-01-19T03:35:49.777Z,3.50
2018-01-19T03:38:17.293Z,3.50
2018-01-19T03:40:45.615Z,3.50
2018-01-19T03:43:13.148Z,3.50
2018-01-19T03:45:40.673Z,3.50
2018-01-19T03:48:08.214Z,3.50
2018-01-19T03:50:35.743Z,3.40
2018-01-19T03:53:03.286Z,3.40
2018-01-19T03:55:30.814Z,3.40
2018-01-19T03:57:58.339Z,3.40
2018-01-19T04:00:26.654Z,3.30
2018-01-19T04:02:54.180Z,3.30
2018-01-19T04:05:21.727Z,3.30
2018-01-19T04:07:49.244Z,3.30
2018-01-19T04:10:17.557Z,3.30
2018-01-19T04:12:45.073Z,3.20
2018-01-19T04:15:13.425Z,3.20
2018-01-19T04:17:40.930Z,3.20
2018-01-19T04:20:09.253Z,3.10
2018-01-19T04:22:36.769Z,3.00
2018-01-19T04:25:04.299Z,3.00
2018-01-19T04:27:31.842Z,3.00
2018-01-19T04:29:59.363Z,3.00
2018-01-19T04:32:26.907Z,3.00
2018-01-19T04:34:54.435Z,2.90
2018-01-19T04:37:21.985Z,2.90
2018-01-19T04:39:49.505Z,2.90
2018-01-19T04:42:17.078Z,2.80
2018-01-19T04:44:44.597Z,2.80
2018-01-19T04:47:12.881Z,2.70
2018-01-19T04:49:40.427Z,2.70
2018-01-19T04:52:08.714Z,2.70
2018-01-19T04:54:36.262Z,2.70
2018-01-19T04:57:04.554Z,2.70
2018-01-19T04:59:32.141Z,2.70
2018-01-19T05:01:59.644Z,2.80
2018-01-19T05:04:27.185Z,2.80
2018-01-19T05:06:54.702Z,2.80
2018-01-19T05:09:22.221Z,2.90
2018-01-19T05:11:49.769Z,2.90
2018-01-19T05:14:17.290Z,3.00
2018-01-19T05:16:44.835Z,3.00
2018-01-19T05:19:12.357Z,3.00
2018-01-19T05:21:39.916Z,2.90
2018-01-19T05:24:08.220Z,3.00
2018-01-19T05:26:36.545Z,3.00
2018-01-19T05:29:04.313Z,3.00
2018-01-19T05:31:32.613Z,3.00
2018-01-19T05:34:00.168Z,3.00
2018-01-19T05:36:27.689Z,2.90
2018-01-19T05:38:55.233Z,2.90
2018-01-19T05:41:22.753Z,2.90
2018-01-19T05:43:50.301Z,2.90
2018-01-19T05:46:17.876Z,3.00
2018-01-19T05:48:45.398Z,3.00
2018-01-19T05:51:12.922Z,2.80
2018-01-19T05:53:40.474Z,2.90
2018-01-19T05:56:08.757Z,2.90
2018-01-19T05:58:36.301Z,2.90
2018-01-19T06:01:04.595Z,3.00
2018-01-19T06:03:32.129Z,2.90
2018-01-19T06:06:00.462Z,3.10
2018-01-19T06:08:27.986Z,3.00
2018-01-19T06:10:55.530Z,3.10
2018-01-19T06:13:23.829Z,3.20
2018-01-19T06:15:51.873Z,3.20
2018-01-19T06:18:20.164Z,3.10
2018-01-19T06:20:48.490Z,3.10
2018-01-19T06:23:16.010Z,3.10
2018-01-19T06:25:43.558Z,3.10
2018-01-19T06:28:11.843Z,3.10
2018-01-19T06:51:55.771Z,3.00
2018-01-19T06:54:23.331Z,3.00
2018-01-19T06:56:50.852Z,3.10
2018-01-19T06:59:18.409Z,3.10
2018-01-19T07:01:45.947Z,3.10
2018-01-19T07:04:13.497Z,3.10
2018-01-19T07:06:41.017Z,3.10
2018-01-19T07:09:08.570Z,3.10
2018-01-19T07:11:36.098Z,3.20
2018-01-19T07:14:04.409Z,3.50
2018-01-19T07:16:31.946Z,3.40
2018-01-19T07:18:59.490Z,3.40
2018-01-19T07:21:27.777Z,3.50
2018-01-19T07:23:56.089Z,3.30
2018-01-19T07:26:23.624Z,3.30
2018-01-19T07:28:51.179Z,3.40
2018-01-19T07:31:18.705Z,3.40
2018-01-19T07:33:46.265Z,3.10
2018-01-19T07:36:13.821Z,3.10
2018-01-19T07:38:41.358Z,3.10
2018-01-19T07:41:08.887Z,2.90
2018-01-19T07:43:36.446Z,2.90
2018-01-19T07:46:03.969Z,2.90
2018-01-19T07:48:31.517Z,3.00
2018-01-19T07:50:59.041Z,3.00
2018-01-19T07:53:26.576Z,2.90
2018-01-19T07:55:54.121Z,3.00
2018-01-19T07:58:22.412Z,3.00
2018-01-19T08:00:49.954Z,2.90
2018-01-19T08:03:18.245Z,3.00
2018-01-19T08:05:45.797Z,3.00
2018-01-19T08:08:14.082Z,3.00
2018-01-19T08:10:41.629Z,3.00
2018-01-19T08:13:09.925Z,3.00
2018-01-19T08:15:37.469Z,3.00
2018-01-19T08:18:05.762Z,3.10
2018-01-19T08:20:33.309Z,3.10
2018-01-19T08:23:01.590Z,3.20
2018-01-19T08:25:29.146Z,3.20
2018-01-19T08:27:57.438Z,3.20
2018-01-19T08:30:24.989Z,3.10
2018-01-19T08:32:52.510Z,3.20
2018-01-19T08:35:20.053Z,3.20
2018-01-19T08:37:47.574Z,3.20
2018-01-19T08:40:15.126Z,3.30
2018-01-19T08:42:42.658Z,3.30
2018-01-19T08:45:10.210Z,3.40
2018-01-19T08:47:37.737Z,3.40
2018-01-19T08:50:05.280Z,3.40
2018-01-19T08:52:32.802Z,3.40
2018-01-19T08:55:01.133Z,3.40
2018-01-19T08:57:28.661Z,3.30
2018-01-19T08:59:56.181Z,3.40
2018-01-19T09:02:23.729Z,3.40
2018-01-19T09:04:51.254Z,3.50
2018-01-19T09:07:18.810Z,3.50
2018-01-19T09:09:46.340Z,3.50
2018-01-19T09:12:14.655Z,3.60
2018-01-19T09:14:42.258Z,3.60
2018-01-19T09:17:10.616Z,3.70
2018-01-19T09:19:38.251Z,3.70
2018-01-19T09:22:05.875Z,3.70
2018-01-19T09:24:34.166Z,3.60
2018-01-19T09:27:01.886Z,3.60
2018-01-19T09:29:29.415Z,3.50
2018-01-19T09:31:56.962Z,3.60
2018-01-19T09:34:24.483Z,3.60
2018-01-19T09:36:52.035Z,3.60
2018-01-19T09:39:19.578Z,3.60
2018-01-19T09:41:47.128Z,3.70
2018-01-19T09:44:14.658Z,3.90
2018-01-19T09:46:42.208Z,3.70
2018-01-19T09:49:09.742Z,3.80
2018-01-19T09:51:37.305Z,3.70
2018-01-19T09:54:04.827Z,3.70
2018-01-19T09:56:32.350Z,3.80
2018-01-19T09:58:59.895Z,3.90
2018-01-19T10:01:28.185Z,4.20
2018-01-19T10:03:55.730Z,4.20
2018-01-19T10:06:24.028Z,4.10
2018-01-19T10:08:51.578Z,4.10
2018-01-19T10:11:19.858Z,4.00
2018-01-19T10:13:48.166Z,3.90
2018-01-19T10:16:15.690Z,3.90
2018-01-19T10:18:44.001Z,4.00
2018-01-19T10:21:11.529Z,4.00
2018-01-19T10:23:39.074Z,4.30
2018-01-19T10:26:07.358Z,4.20
2018-01-19T10:28:35.678Z,4.20
2018-01-19T10:31:03.202Z,4.10
2018-01-19T10:33:30.747Z,4.20
2018-01-19T10:35:59.038Z,4.30
2018-01-19T10:38:27.341Z,4.00
2018-01-19T10:40:54.865Z,4.00
2018-01-19T10:43:23.181Z,4.40
2018-01-19T10:45:50.701Z,4.30
2018-01-19T10:48:19.006Z,4.60
2018-01-19T10:50:46.538Z,4.60
2018-01-19T10:53:14.854Z,4.50
2018-01-19T10:55:42.381Z,4.40
2018-01-19T10:58:10.673Z,4.40
2018-01-19T11:00:38.230Z,4.30
2018-01-19T11:03:05.758Z,4.30
2018-01-19T11:05:33.302Z,4.30
2018-01-19T11:08:00.829Z,4.50
2018-01-19T11:10:28.374Z,4.70
2018-01-19T11:12:55.898Z,4.70
2018-01-19T11:15:23.445Z,4.70
2018-01-19T11:17:50.966Z,5.00
2018-01-19T11:20:18.514Z,5.20
2018-01-19T11:22:46.038Z,5.20
2018-01-19T11:25:14.361Z,5.10
2018-01-19T11:27:41.883Z,5.10
2018-01-19T11:30:10.198Z,5.10
2018-01-19T11:32:37.727Z,5.10
2018-01-19T11:35:06.035Z,5.10
2018-01-19T11:37:33.569Z,5.10
2018-01-19T11:40:01.118Z,5.10
2018-01-19T11:42:29.406Z,5.40
2018-01-19T11:44:56.953Z,5.30
2018-01-19T11:47:25.238Z,5.10
2018-01-19T11:49:53.546Z,4.90
2018-01-19T11:52:21.065Z,4.90
2018-01-19T11:54:49.376Z,4.70
2018-01-19T11:57:16.906Z,4.70
2018-01-19T11:59:45.194Z,4.70
2018-01-19T12:02:12.750Z,4.70
2018-01-19T12:04:40.270Z,4.70
2018-01-19T12:07:07.816Z,4.60
2018-01-19T12:09:35.342Z,4.80
2018-01-19T12:12:02.894Z,4.70
2018-01-19T12:14:30.419Z,4.80
2018-01-19T12:16:57.970Z,4.90
2018-01-19T12:19:25.489Z,4.90
2018-01-19T12:21:53.045Z,4.80
2018-01-19T12:24:20.563Z,4.80
2018-01-19T12:26:48.885Z,4.70
2018-01-19T12:29:16.406Z,4.70
2018-01-19T12:31:44.714Z,4.50
2018-01-19T12:34:12.238Z,4.50
2018-01-19T12:36:40.550Z,4.60
2018-01-19T12:39:08.078Z,4.60
2018-01-19T12:41:36.451Z,4.70
2018-01-19T12:44:03.970Z,4.70
2018-01-19T12:46:31.521Z,4.80
2018-01-19T12:48:59.047Z,4.60
2018-01-19T12:51:26.607Z,4.60
2018-01-19T12:53:54.899Z,4.60
2018-01-19T12:56:22.448Z,4.60
2018-01-19T12:58:49.972Z,4.60
2018-01-19T13:01:17.530Z,4.80
2018-01-19T13:03:45.053Z,4.80
2018-01-19T13:06:12.588Z,4.90
2018-01-19T13:08:40.135Z,5.00
2018-01-19T13:11:08.422Z,5.10
2018-01-19T13:13:36.007Z,5.10
2018-01-19T13:16:03.527Z,4.90
2018-01-19T13:18:31.841Z,4.70
2018-01-19T13:20:59.359Z,4.70
2018-01-19T13:23:27.673Z,4.70
2018-01-19T13:25:55.202Z,4.70
2018-01-19T13:28:23.518Z,4.60
2018-01-19T13:30:51.041Z,4.60
2018-01-19T13:33:19.355Z,4.60
2018-01-19T13:35:46.878Z,4.60
2018-01-19T13:38:15.191Z,4.50
2018-01-19T13:40:42.713Z,4.50
2018-01-19T13:43:11.031Z,4.40
2018-01-19T13:45:38.569Z,4.40
2018-01-19T13:48:06.122Z,4.40
2018-01-19T13:50:33.642Z,4.30
2018-01-19T13:53:01.194Z,4.30
2018-01-19T13:55:28.725Z,4.20
2018-01-19T13:57:56.265Z,4.20
2018-01-19T14:00:23.794Z,4.00
2018-01-19T14:02:51.349Z,3.70
2018-01-19T14:05:18.878Z,3.70
2018-01-19T14:07:46.402Z,3.70
2018-01-19T14:10:13.958Z,3.70
2018-01-19T14:12:41.486Z,3.70
2018-01-19T14:15:09.038Z,3.60
2018-01-19T14:17:36.573Z,3.60
2018-01-19T14:20:04.121Z,3.60
2018-01-19T14:22:31.648Z,3.60
2018-01-19T14:24:59.203Z,3.60
2018-01-19T14:27:27.519Z,3.70
2018-01-19T14:29:55.059Z,3.70
2018-01-19T14:32:22.586Z,3.70
2018-01-19T14:34:50.133Z,3.70
2018-01-19T14:37:17.662Z,3.60
2018-01-19T14:39:45.209Z,3.50
2018-01-19T14:42:12.734Z,3.60
2018-01-19T14:44:41.054Z,3.70
2018-01-19T14:47:08.582Z,3.70
2018-01-19T14:49:36.893Z,3.70
2018-01-19T14:52:04.413Z,3.70
2018-01-19T14:54:32.727Z,3.60
2018-01-19T14:57:00.253Z,3.60
2018-01-19T14:59:27.805Z,3.60
2018-01-19T15:01:56.093Z,3.60
2018-01-19T15:04:23.642Z,3.60
2018-01-19T15:06:51.925Z,3.70
2018-01-19T15:09:20.214Z,3.80
2018-01-19T15:11:47.758Z,3.70
2018-01-19T15:14:16.038Z,3.70
2018-01-19T15:16:43.589Z,3.70
2018-01-19T15:19:11.878Z,3.60
2018-01-19T15:21:39.434Z,3.60
2018-01-19T15:24:06.958Z,3.50
2018-01-19T15:26:34.498Z,3.50
2018-01-19T15:29:02.018Z,3.50
2018-01-19T15:31:29.574Z,3.40
2018-01-19T15:33:57.101Z,3.40
2018-01-19T15:36:24.651Z,3.50
2018-01-19T15:38:52.165Z,3.40
2018-01-19T15:41:19.718Z,3.40
2018-01-19T15:43:47.242Z,3.30
2018-01-19T15:46:14.785Z,3.30
2018-01-19T15:48:42.312Z,3.30
2018-01-19T15:51:09.874Z,3.20
2018-01-19T15:53:37.395Z,3.30
2018-01-19T15:56:05.709Z,3.10
2018-01-19T15:58:33.234Z,3.10
2018-01-19T16:01:01.545Z,3.00
2018-01-19T16:03:29.076Z,3.00
2018-01-19T16:05:57.397Z,3.10
2018-01-19T16:08:24.921Z,3.10
2018-01-19T16:10:52.446Z,3.10
2018-01-19T16:13:19.989Z,3.00
2018-01-19T16:15:47.509Z,3.00
2018-01-19T16:18:15.058Z,3.00
2018-01-19T16:20:42.587Z,2.90
2018-01-19T16:23:10.133Z,2.90
2018-01-19T16:25:37.660Z,2.90
2018-01-19T16:28:05.211Z,2.90
2018-01-19T16:30:32.739Z,2.90
2018-01-19T16:33:01.051Z,2.80
2018-01-19T16:35:28.573Z,2.80
2018-01-19T16:37:56.879Z,2.80
2018-01-19T16:40:24.402Z,2.80
2018-01-19T16:42:51.955Z,2.80
2018-01-19T16:45:19.478Z,2.90
2018-01-19T16:47:47.022Z,2.90
2018-01-19T16:50:14.574Z,2.90
2018-01-19T16:52:42.125Z,2.90
2018-01-19T16:55:09.981Z,2.80
2018-01-19T16:57:37.607Z,2.80
2018-01-19T17:00:05.149Z,2.90
2018-01-19T17:02:32.697Z,2.90
2018-01-19T17:05:00.218Z,2.90
2018-01-19T17:07:28.543Z,2.90
2018-01-19T17:09:56.066Z,2.90
2018-01-19T17:12:23.590Z,2.90
2018-01-19T17:14:51.138Z,2.90
2018-01-19T17:17:18.657Z,2.90
2018-01-19T17:19:46.210Z,2.80
2018-01-19T17:22:13.731Z,2.70
2018-01-19T17:24:41.281Z,2.20
2018-01-19T17:27:08.804Z,2.00
2018-01-19T17:29:36.345Z,1.60
2018-01-19T17:32:03.875Z,1.50
2018-01-19T17:34:31.429Z,1.50
2018-01-19T17:36:58.958Z,1.50
2018-01-19T17:39:26.511Z,1.50
2018-01-19T17:41:54.034Z,1.50
2018-01-19T17:44:22.354Z,1.50
2018-01-19T17:46:49.879Z,1.50
2018-01-19T17:49:17.434Z,1.50
2018-01-19T17:51:44.966Z,1.50
2018-01-19T17:54:12.530Z,1.60
2018-01-19T17:56:40.094Z,1.60
2018-01-19T17:59:08.405Z,1.60
2018-01-19T18:01:35.936Z,1.60
2018-01-19T18:04:04.252Z,1.60
2018-01-19T18:06:31.787Z,1.60
2018-01-19T18:08:59.341Z,1.60
2018-01-19T18:11:27.662Z,1.70
2018-01-19T18:13:55.234Z,1.70
2018-01-19T18:16:22.766Z,1.70
2018-01-19T18:18:50.323Z,1.70
2018-01-19T18:21:17.858Z,1.70
2018-01-19T18:23:46.181Z,1.70
2018-01-19T18:26:13.702Z,1.70
2018-01-19T18:28:41.261Z,1.80
2018-01-19T18:31:08.794Z,1.80
2018-01-19T18:33:36.350Z,1.80
2018-01-19T18:36:03.874Z,1.80
2018-01-19T18:38:31.438Z,1.80
2018-01-19T18:40:58.970Z,1.80
2018-01-19T18:43:26.536Z,1.80
2018-01-19T18:45:54.071Z,1.70
2018-01-19T18:48:21.607Z,1.70
2018-01-19T18:50:49.154Z,1.70
2018-01-19T18:53:16.682Z,1.70
2018-01-19T18:55:44.227Z,1.70
2018-01-19T18:58:11.754Z,1.80
2018-01-19T19:00:40.094Z,1.70
2018-01-19T19:03:07.627Z,1.70
2018-01-19T19:05:35.185Z,1.70
2018-01-19T19:08:02.714Z,1.80
2018-01-19T19:10:31.038Z,1.90
2018-01-19T19:12:58.572Z,1.80
2018-01-19T19:15:26.129Z,1.90
2018-01-19T19:17:53.670Z,1.90
2018-01-19T19:20:22.001Z,1.80
2018-01-19T19:22:49.537Z,1.80
2018-01-19T19:25:17.125Z,1.80
2018-01-19T19:27:44.663Z,1.80
2018-01-19T19:30:12.218Z,1.80
2018-01-19T19:32:39.742Z,1.80
2018-01-19T19:35:08.063Z,1.80
2018-01-19T19:37:35.626Z,1.80
2018-01-19T19:40:03.198Z,1.80
2018-01-19T19:42:30.730Z,1.80
2018-01-19T19:44:58.279Z,1.80
2018-01-19T19:47:26.575Z,1.90
2018-01-19T19:49:54.125Z,1.90
2018-01-19T19:52:21.651Z,2.00
2018-01-19T19:54:49.225Z,2.00
2018-01-19T19:57:17.513Z,2.00
2018-01-19T19:59:45.824Z,2.00
2018-01-19T20:02:13.346Z,2.00
2018-01-19T20:04:40.909Z,1.90
2018-01-19T20:07:09.208Z,1.70
2018-01-19T20:09:36.754Z,1.70
2018-01-19T20:12:04.290Z,1.70
2018-01-19T20:14:32.622Z,1.80
2018-01-19T20:17:00.153Z,1.80
2018-01-19T20:19:27.707Z,1.80
2018-01-19T20:21:55.237Z,1.80
2018-01-19T20:24:22.845Z,1.90
2018-01-19T20:26:51.112Z,2.00
2018-01-19T20:29:18.690Z,2.00
2018-01-19T20:31:46.217Z,2.00
2018-01-19T20:34:13.782Z,1.90
2018-01-19T20:36:41.314Z,1.90
2018-01-19T20:39:09.635Z,1.80
2018-01-19T20:41:37.161Z,1.80
2018-01-19T20:44:05.469Z,1.80
2018-01-19T20:46:32.999Z,1.80
2018-01-19T20:49:01.322Z,1.90
2018-01-19T20:51:28.859Z,2.00
2018-01-19T20:53:56.385Z,2.10
2018-01-19T20:56:23.943Z,2.00
2018-01-19T20:58:52.246Z,2.10
2018-01-19T21:01:19.814Z,2.10
2018-01-19T21:03:47.357Z,2.10
2018-01-19T21:06:15.683Z,2.20
2018-01-19T21:08:43.208Z,2.20
2018-01-19T21:11:11.058Z,2.20
2018-01-19T21:13:39.349Z,2.20
2018-01-19T21:16:06.900Z,2.20
2018-01-19T21:18:35.204Z,2.20
2018-01-19T21:21:03.206Z,2.20
2018-01-19T21:23:30.852Z,2.20
2018-01-19T21:25:58.464Z,2.10
2018-01-19T21:28:26.096Z,2.10
2018-01-19T21:30:54.454Z,2.10
2018-01-19T21:33:22.545Z,2.10
2018-01-19T21:35:50.168Z,2.20
2018-01-19T21:38:17.806Z,2.10
2018-01-19T21:40:46.222Z,2.10
2018-01-19T21:43:14.356Z,2.10
2018-01-19T21:45:42.528Z,2.10
2018-01-19T21:48:10.204Z,2.10
2018-01-19T21:50:38.605Z,2.00
2018-01-19T21:53:06.159Z,2.00
2018-01-19T21:55:33.943Z,2.00
2018-01-19T21:58:02.100Z,1.90
2018-01-19T22:00:29.714Z,1.80
2018-01-19T22:02:58.029Z,1.80
2018-01-19T22:05:25.557Z,1.80
2018-01-19T22:07:54.080Z,1.70
2018-01-19T22:10:22.057Z,1.70
2018-01-19T22:12:49.679Z,1.70
2018-01-19T22:15:17.974Z,1.80
2018-01-19T22:17:45.582Z,1.80
2018-01-19T22:20:13.723Z,1.80
2018-01-19T22:22:41.416Z,1.90
2018-01-19T22:25:08.975Z,1.90
2018-01-19T22:27:36.533Z,1.80
2018-01-19T22:30:04.082Z,1.80
2018-01-19T22:32:31.631Z,1.80
2018-01-19T22:34:59.169Z,1.90
2018-01-19T22:37:26.716Z,2.00
2018-01-19T22:39:55.005Z,2.00
2018-01-19T22:42:22.569Z,2.00
2018-01-19T22:44:50.093Z,2.00
2018-01-19T22:47:17.658Z,2.00
2018-01-19T22:49:45.193Z,2.10
2018-01-19T22:52:12.742Z,2.10
2018-01-19T22:54:40.269Z,2.10
2018-01-19T22:57:07.798Z,2.00
2018-01-19T22:59:36.117Z,2.00
2018-01-19T23:02:03.657Z,2.00
2018-01-19T23:04:31.215Z,2.10
2018-01-19T23:06:58.745Z,2.10
2018-01-19T23:09:26.290Z,2.10
2018-01-19T23:11:53.822Z,2.10
2018-01-19T23:14:21.369Z,2.20
2018-01-19T23:16:48.900Z,2.10
2018-01-19T23:19:17.211Z,2.20
2018-01-19T23:21:44.737Z,2.10
2018-01-19T23:24:13.056Z,2.10
2018-01-19T23:26:40.574Z,2.10
2018-01-19T23:29:08.884Z,2.10
2018-01-19T23:31:36.420Z,2.10
2018-01-19T23:34:03.979Z,2.10
2018-01-19T23:36:31.510Z,2.10
2018-01-19T23:38:59.058Z,2.10
2018-01-19T23:41:26.586Z,2.10
2018-01-19T23:43:54.133Z,2.10
2018-01-19T23:46:21.666Z,2.10
2018-01-19T23:48:49.981Z,2.00
2018-01-19T23:51:17.509Z,2.00
2018-01-19T23:53:45.826Z,1.80
2018-01-19T23:56:13.346Z,1.80
2018-01-19T23:58:41.634Z,1.70
